Time;durP1;ratioP1;P1;durP2;ratioP2;P2;SDS_P1;SDS_P2;PMS_P1;PMS_P2;Temp;Humidity;BMP_temperature;BMP_pressure;BME280_temperature;BME280_humidity;BME280_pressure;Samples;Min_cycle;Max_cycle;Signal;HPM_P1;HPM_P2
2023/03/01 00:00:48;;;;;;;5.07;2.60;;;-0.10;99.90;;;;;;5006079;28;20037;-83
2023/03/01 00:03:19;;;;;;;4.28;2.47;;;-0.20;99.90;;;;;;5019362;28;20038;-84
2023/03/01 00:05:46;;;;;;;4.78;2.80;;;-0.20;99.90;;;;;;4989550;28;20038;-83
2023/03/01 00:08:12;;;;;;;3.97;2.60;;;-0.20;99.90;;;;;;5017906;28;20056;-82
2023/03/01 00:10:38;;;;;;;4.28;2.55;;;-0.30;99.90;;;;;;5002101;28;20068;-81
2023/03/01 00:13:06;;;;;;;4.82;2.75;;;-0.30;99.90;;;;;;5018845;28;20058;-82
2023/03/01 00:15:32;;;;;;;5.28;2.60;;;-0.30;99.90;;;;;;5002304;28;20402;-82
2023/03/01 00:17:57;;;;;;;4.70;2.78;;;-0.40;99.90;;;;;;5005117;28;20124;-82
2023/03/01 00:20:23;;;;;;;5.35;2.80;;;-0.40;99.90;;;;;;5006455;28;20979;-81
2023/03/01 00:22:49;;;;;;;5.13;2.78;;;-0.40;99.90;;;;;;5020242;28;20441;-82
2023/03/01 00:25:15;;;;;;;4.68;2.78;;;-0.40;99.90;;;;;;5005746;28;20092;-82
2023/03/01 00:27:42;;;;;;;4.40;2.38;;;-0.40;99.90;;;;;;5001345;28;20068;-82
2023/03/01 00:30:08;;;;;;;6.18;2.75;;;-0.50;99.90;;;;;;4987266;28;20068;-82
2023/03/01 00:32:47;;;;;;;4.22;2.70;;;-0.50;99.90;;;;;;5016964;28;20041;-80
2023/03/01 00:35:19;;;;;;;5.05;2.75;;;-0.50;99.90;;;;;;4990479;28;20053;-81
2023/03/01 00:37:45;;;;;;;4.95;2.95;;;-0.60;99.90;;;;;;5001667;28;20038;-81
2023/03/01 00:40:16;;;;;;;4.60;2.50;;;-0.60;99.90;;;;;;5001828;28;20033;-81
2023/03/01 00:42:41;;;;;;;5.55;3.00;;;-0.60;99.90;;;;;;5001578;28;20046;-82
2023/03/01 00:45:07;;;;;;;3.85;2.30;;;-0.60;99.90;;;;;;5005640;28;20045;-82
2023/03/01 00:47:34;;;;;;;5.15;2.85;;;-0.60;99.90;;;;;;5016018;28;20045;-82
2023/03/01 00:50:07;;;;;;;;;;;-0.60;99.90;;;;;;5018903;28;20050;-81
2023/03/01 00:52:38;;;;;;;5.50;2.63;;;-0.60;99.90;;;;;;5001063;28;20060;-81
2023/03/01 00:55:08;;;;;;;4.65;2.58;;;-0.70;99.90;;;;;;5017346;28;20049;-82
2023/03/01 00:57:38;;;;;;;4.15;2.30;;;-0.70;99.90;;;;;;5017856;28;20371;-81
2023/03/01 01:00:09;;;;;;;4.30;2.35;;;-0.70;99.90;;;;;;5018501;28;20046;-82
2023/03/01 01:02:36;;;;;;;4.15;2.33;;;-0.80;99.90;;;;;;5005895;28;20040;-81
2023/03/01 01:05:01;;;;;;;4.93;2.60;;;-0.80;99.90;;;;;;5001002;28;20125;-82
2023/03/01 01:07:31;;;;;;;5.28;2.78;;;-0.80;99.90;;;;;;5018117;28;20052;-81
2023/03/01 01:10:00;;;;;;;6.03;2.83;;;-0.80;99.90;;;;;;5000772;28;20056;-82
2023/03/01 01:12:26;;;;;;;4.63;2.38;;;-0.80;99.90;;;;;;5002871;28;20042;-81
2023/03/01 01:14:52;;;;;;;6.05;3.15;;;-0.90;99.90;;;;;;4988499;28;20560;-82
2023/03/01 01:17:19;;;;;;;4.50;2.35;;;-0.90;99.90;;;;;;5006158;28;20034;-82
2023/03/01 01:19:44;;;;;;;4.15;2.63;;;-0.90;99.90;;;;;;4990350;28;20060;-82
2023/03/01 01:22:15;;;;;;;4.95;2.60;;;-0.90;99.90;;;;;;5005486;28;20033;-81
2023/03/01 01:24:41;;;;;;;4.07;2.35;;;-1.00;99.90;;;;;;5008856;28;20040;-82
2023/03/01 01:27:07;;;;;;;5.22;2.50;;;-1.00;99.90;;;;;;5002700;28;20100;-82
2023/03/01 01:29:33;;;;;;;4.78;2.80;;;-1.00;99.90;;;;;;4991609;28;20489;-82
2023/03/01 01:31:58;;;;;;;4.03;2.38;;;-1.00;99.90;;;;;;5006018;28;20420;-80
2023/03/01 01:34:24;;;;;;;4.13;2.63;;;-1.00;99.90;;;;;;4999912;28;20486;-81
2023/03/01 01:36:53;;;;;;;4.57;2.67;;;-1.00;99.90;;;;;;5005098;28;20499;-82
2023/03/01 01:39:21;;;;;;;4.70;2.70;;;-1.10;99.90;;;;;;5017148;28;20026;-81
2023/03/01 01:41:48;;;;;;;4.70;2.70;;;-1.10;99.90;;;;;;5001873;28;20037;-80
2023/03/01 01:44:27;;;;;;;4.68;2.70;;;-1.10;99.90;;;;;;5001254;28;20060;-81
2023/03/01 01:46:58;;;;;;;4.70;2.80;;;-1.10;99.90;;;;;;4999314;28;20045;-81
2023/03/01 01:49:40;;;;;;;4.75;2.88;;;-1.10;99.90;;;;;;4999482;28;20493;-81
2023/03/01 01:52:29;;;;;;;5.28;2.67;;;-1.10;99.90;;;;;;5018216;28;20401;-81
2023/03/01 01:55:02;;;;;;;4.18;2.45;;;-1.20;99.90;;;;;;5005320;28;20041;-81
2023/03/01 01:57:35;;;;;;;4.50;2.88;;;-1.20;99.90;;;;;;5000251;28;20033;-81
2023/03/01 02:00:04;;;;;;;;;;;-1.20;99.90;;;;;;4999134;28;20025;-81
2023/03/01 02:02:33;;;;;;;5.40;2.75;;;-1.20;99.90;;;;;;5001953;28;19982;-81
2023/03/01 02:05:27;;;;;;;6.18;3.10;;;-1.20;99.90;;;;;;5004545;28;20398;-81
2023/03/01 02:07:54;;;;;;;4.90;2.97;;;-1.20;99.90;;;;;;4987419;28;20132;-82
2023/03/01 02:10:27;;;;;;;5.35;2.92;;;-1.30;99.90;;;;;;5005136;28;20029;-82
2023/03/01 02:12:58;;;;;;;6.00;3.40;;;-1.30;99.90;;;;;;5004271;28;20407;-82
2023/03/01 02:15:24;;;;;;;5.38;3.50;;;-1.30;99.90;;;;;;4999396;28;20469;-81
2023/03/01 02:17:56;;;;;;;6.38;3.38;;;-1.30;99.90;;;;;;5001152;28;20032;-82
2023/03/01 02:20:29;;;;;;;5.97;3.40;;;-1.30;99.90;;;;;;5013168;28;20038;-81
2023/03/01 02:22:55;;;;;;;5.55;3.22;;;-1.30;99.90;;;;;;4999522;28;20042;-82
2023/03/01 02:26:01;;;;;;;4.65;3.10;;;-1.40;99.90;;;;;;4999552;28;20048;-81
2023/03/01 02:28:38;;;;;;;5.22;3.25;;;-1.40;99.90;;;;;;4993714;28;20381;-82
2023/03/01 02:33:52;;;;;;;6.72;3.50;;;-1.40;99.90;;;;;;5016559;28;20039;-83
2023/03/01 02:36:35;;;;;;;5.97;3.60;;;-1.40;99.90;;;;;;5016324;28;20238;-81
2023/03/01 02:39:03;;;;;;;6.55;4.00;;;-1.40;99.90;;;;;;4998742;28;20499;-82
2023/03/01 02:41:37;;;;;;;5.45;2.97;;;-1.40;99.90;;;;;;5016053;28;20048;-81
2023/03/01 02:44:10;;;;;;;5.78;3.42;;;-1.50;99.90;;;;;;4999968;28;20042;-81
2023/03/01 02:46:55;;;;;;;5.65;3.40;;;-1.40;99.90;;;;;;5004468;28;20061;-81
2023/03/01 02:49:34;;;;;;;5.55;3.17;;;-1.40;99.90;;;;;;5000704;28;20436;-82
2023/03/01 02:52:16;;;;;;;5.88;3.35;;;-1.40;99.90;;;;;;5001815;28;20038;-81
2023/03/01 02:55:02;;;;;;;6.03;3.22;;;-1.40;99.90;;;;;;4999252;28;20457;-81
2023/03/01 02:57:50;;;;;;;5.65;3.25;;;-1.30;99.90;;;;;;5015904;28;20033;-82
2023/03/01 03:00:21;;;;;;;5.70;3.40;;;-1.30;99.90;;;;;;5000076;28;20034;-82
2023/03/01 03:02:50;;;;;;;6.63;3.47;;;-1.30;99.90;;;;;;4998619;28;20033;-81
2023/03/01 03:05:25;;;;;;;5.05;3.58;;;-1.30;99.90;;;;;;4999627;28;20045;-81
2023/03/01 03:07:52;;;;;;;5.30;3.25;;;-1.30;99.90;;;;;;4999573;28;20179;-81
2023/03/01 03:10:24;;;;;;;5.40;3.33;;;-1.30;99.90;;;;;;4988660;28;20393;-81
2023/03/01 03:13:00;;;;;;;6.68;3.10;;;-1.30;99.90;;;;;;5003764;28;20030;-83
2023/03/01 03:15:29;;;;;;;5.80;3.15;;;-1.30;99.90;;;;;;4998341;28;20139;-82
2023/03/01 03:17:58;;;;;;;6.72;4.28;;;-1.30;99.90;;;;;;5017177;28;20049;-81
2023/03/01 03:20:27;;;;;;;6.28;3.63;;;-1.30;99.90;;;;;;5007834;28;20145;-81
2023/03/01 03:22:55;;;;;;;5.45;2.80;;;-1.30;99.90;;;;;;5007675;28;20048;-82
2023/03/01 03:25:22;;;;;;;6.50;3.53;;;-1.30;99.90;;;;;;5005532;28;20137;-82
2023/03/01 03:27:57;;;;;;;5.18;3.15;;;-1.30;99.90;;;;;;5025004;28;20832;-82
2023/03/01 03:30:31;;;;;;;6.55;2.97;;;-1.30;99.90;;;;;;5010190;28;20042;-81
2023/03/01 03:32:58;;;;;;;5.10;2.90;;;-1.30;99.90;;;;;;5007723;28;20046;-81
2023/03/01 03:35:30;;;;;;;5.85;3.25;;;-1.40;99.90;;;;;;5009247;28;20068;-81
2023/03/01 03:38:06;;;;;;;5.10;2.85;;;-1.40;99.90;;;;;;5010460;28;20037;-81
2023/03/01 03:40:41;;;;;;;4.80;2.72;;;-1.30;99.90;;;;;;5008279;28;20025;-81
2023/03/01 03:43:18;;;;;;;5.28;2.80;;;-1.30;99.90;;;;;;5025506;28;20137;-81
2023/03/01 03:45:51;;;;;;;4.35;2.70;;;-1.30;99.90;;;;;;5004915;28;20046;-80
2023/03/01 03:48:18;;;;;;;6.22;2.83;;;-1.20;99.90;;;;;;5007816;28;20065;-80
2023/03/01 03:50:51;;;;;;;5.13;2.70;;;-1.30;99.90;;;;;;4992132;28;20109;-80
2023/03/01 03:53:18;;;;;;;3.42;2.35;;;-1.30;99.90;;;;;;5002045;28;20037;-81
2023/03/01 03:55:49;;;;;;;4.30;2.28;;;-1.30;99.90;;;;;;5018859;28;20144;-81
2023/03/01 03:58:16;;;;;;;3.90;2.33;;;-1.30;99.90;;;;;;5007154;28;20030;-81
2023/03/01 04:00:44;;;;;;;4.50;2.72;;;-1.30;99.90;;;;;;5019824;28;20096;-81
2023/03/01 04:03:13;;;;;;;4.72;2.65;;;-1.40;99.90;;;;;;5006544;28;20048;-81
2023/03/01 04:05:42;;;;;;;4.53;2.75;;;-1.40;99.90;;;;;;5001642;28;20052;-80
2023/03/01 04:08:08;;;;;;;4.68;2.72;;;-1.40;99.90;;;;;;5019201;28;20171;-81
2023/03/01 04:10:37;;;;;;;5.78;2.70;;;-1.50;99.90;;;;;;5020326;28;20044;-81
2023/03/01 04:13:05;;;;;;;4.20;2.88;;;-1.50;99.90;;;;;;5006601;28;20038;-81
2023/03/01 04:15:32;;;;;;;4.47;2.75;;;-1.50;99.90;;;;;;5007870;28;20042;-81
2023/03/01 04:17:58;;;;;;;5.15;2.50;;;-1.50;99.90;;;;;;5017941;28;20033;-80
2023/03/01 04:20:29;;;;;;;5.43;3.42;;;-1.60;99.90;;;;;;5019415;28;20042;-81
2023/03/01 04:23:10;;;;;;;5.50;2.83;;;-1.60;99.90;;;;;;5019338;28;20521;-81
2023/03/01 04:25:40;;;;;;;5.15;3.05;;;-1.60;99.90;;;;;;5019247;28;20049;-81
2023/03/01 04:28:05;;;;;;;5.68;2.97;;;-1.60;99.90;;;;;;5001290;28;20076;-82
2023/03/01 04:30:35;;;;;;;5.70;3.28;;;-1.60;99.90;;;;;;5021159;28;20017;-82
2023/03/01 04:33:11;;;;;;;6.15;3.10;;;-1.60;99.90;;;;;;5001042;28;20132;-82
2023/03/01 04:35:38;;;;;;;4.88;2.88;;;-1.70;99.90;;;;;;5000167;28;20037;-82
2023/03/01 04:38:10;;;;;;;6.03;2.92;;;-1.60;99.90;;;;;;4989263;28;20029;-81
2023/03/01 04:40:36;;;;;;;5.35;3.25;;;-1.70;99.90;;;;;;5006770;28;20034;-82
2023/03/01 04:43:03;;;;;;;4.95;2.97;;;-1.70;99.90;;;;;;5000014;28;20034;-81
2023/03/01 04:45:31;;;;;;;4.28;2.90;;;-1.70;99.90;;;;;;5000489;28;20052;-81
2023/03/01 04:47:59;;;;;;;6.20;3.33;;;-1.70;99.90;;;;;;5019295;28;20046;-80
2023/03/01 04:50:25;;;;;;;6.22;3.35;;;-1.70;99.90;;;;;;5002683;28;20077;-81
2023/03/01 04:52:58;;;;;;;7.88;3.50;;;-1.70;99.90;;;;;;5001341;28;20041;-81
2023/03/01 04:55:25;;;;;;;4.80;2.90;;;-1.70;99.90;;;;;;5007420;28;20045;-81
2023/03/01 04:57:51;;;;;;;7.30;3.50;;;-1.70;99.90;;;;;;4990407;28;20037;-83
2023/03/01 05:00:20;;;;;;;6.50;3.67;;;-1.70;99.90;;;;;;5006958;28;20436;-82
2023/03/01 05:02:53;;;;;;;5.38;3.58;;;-1.70;99.90;;;;;;5019361;28;20152;-81
2023/03/01 05:05:33;;;;;;;6.72;4.30;;;-1.70;99.90;;;;;;4999590;28;20057;-81
2023/03/01 05:08:04;;;;;;;6.55;3.70;;;-1.70;99.90;;;;;;5000591;28;20116;-81
2023/03/01 05:10:31;;;;;;;8.05;3.97;;;-1.80;99.90;;;;;;5000571;28;20033;-81
2023/03/01 05:13:00;;;;;;;6.47;3.50;;;-1.80;99.90;;;;;;4989072;28;20050;-81
2023/03/01 05:15:34;;;;;;;5.90;3.38;;;-1.80;99.90;;;;;;5000075;28;20041;-81
2023/03/01 05:18:00;;;;;;;;;;;-1.80;99.90;;;;;;5005122;28;20087;-81
2023/03/01 05:20:29;;;;;;;4.90;2.85;;;-1.90;99.90;;;;;;5000835;28;19944;-81
2023/03/01 05:22:58;;;;;;;5.65;3.28;;;-1.90;99.90;;;;;;5001077;28;20132;-81
2023/03/01 05:25:25;;;;;;;7.65;3.83;;;-1.90;99.90;;;;;;5005594;28;20402;-81
2023/03/01 05:27:51;;;;;;;5.32;2.95;;;-1.90;99.90;;;;;;5000040;28;20038;-82
2023/03/01 05:30:22;;;;;;;5.88;3.60;;;-1.90;99.90;;;;;;5000459;28;20041;-80
2023/03/01 05:32:55;;;;;;;6.47;3.35;;;-1.90;99.90;;;;;;5001149;28;20041;-80
2023/03/01 05:35:22;;;;;;;5.82;3.47;;;-1.90;99.90;;;;;;5001909;28;20076;-81
2023/03/01 05:37:48;;;;;;;5.32;3.25;;;-1.90;99.90;;;;;;5005526;28;20167;-82
2023/03/01 05:40:20;;;;;;;6.40;3.67;;;-1.90;99.90;;;;;;4989422;28;20034;-81
2023/03/01 05:42:48;;;;;;;6.43;3.30;;;-1.90;99.90;;;;;;5002831;28;20061;-81
2023/03/01 05:45:15;;;;;;;6.95;3.92;;;-1.90;99.90;;;;;;5004194;28;20125;-80
2023/03/01 05:47:44;;;;;;;5.15;3.05;;;-1.90;99.90;;;;;;5003996;28;20486;-82
2023/03/01 05:50:18;;;;;;;7.35;3.80;;;-2.00;99.90;;;;;;5021574;28;20030;-82
2023/03/01 05:52:45;;;;;;;6.15;3.20;;;-2.00;99.90;;;;;;5005868;28;20584;-82
2023/03/01 05:55:11;;;;;;;7.68;4.22;;;-2.00;99.90;;;;;;5006892;28;20045;-82
2023/03/01 05:57:37;;;;;;;7.93;4.22;;;-2.00;99.90;;;;;;5008865;28;20044;-82
2023/03/01 06:00:06;;;;;;;7.28;4.35;;;-1.90;99.90;;;;;;5006257;28;20232;-81
2023/03/01 06:02:31;;;;;;;7.40;4.40;;;-2.00;99.90;;;;;;4991603;28;20037;-81
2023/03/01 06:04:57;;;;;;;7.05;4.07;;;-2.00;99.90;;;;;;5003216;28;20509;-82
2023/03/01 06:07:26;;;;;;;7.90;4.18;;;-2.00;99.90;;;;;;5005613;28;20107;-82
2023/03/01 06:09:57;;;;;;;6.40;3.63;;;-2.00;99.90;;;;;;5005489;28;20044;-83
2023/03/01 06:12:23;;;;;;;6.07;3.75;;;-2.00;99.90;;;;;;5001724;28;20037;-82
2023/03/01 06:14:52;;;;;;;6.15;3.20;;;-2.00;99.90;;;;;;5000222;28;22275;-82
2023/03/01 06:17:18;;;;;;;5.20;3.08;;;-1.90;99.90;;;;;;4999376;28;20034;-82
2023/03/01 06:19:47;;;;;;;5.22;2.75;;;-1.90;99.90;;;;;;5001037;28;20038;-82
2023/03/01 06:22:13;;;;;;;7.35;3.38;;;-1.80;99.90;;;;;;4986052;28;20124;-82
2023/03/01 06:24:39;;;;;;;6.30;3.03;;;-1.80;99.90;;;;;;5000906;28;20090;-82
2023/03/01 06:27:05;;;;;;;6.55;3.40;;;-1.80;99.90;;;;;;5016601;28;20050;-83
2023/03/01 06:29:34;;;;;;;5.38;3.10;;;-1.80;99.90;;;;;;5004331;28;20048;-82
2023/03/01 06:32:07;;;;;;;5.50;3.25;;;-1.80;99.90;;;;;;4999347;28;20030;-82
2023/03/01 06:34:33;;;;;;;5.63;3.67;;;-1.80;99.90;;;;;;5018168;28;20034;-83
2023/03/01 06:37:09;;;;;;;6.55;3.65;;;-1.90;99.90;;;;;;5016363;28;20547;-83
2023/03/01 06:39:38;;;;;;;7.63;3.80;;;-1.80;99.90;;;;;;4989140;28;20132;-82
2023/03/01 06:42:12;;;;;;;6.70;3.75;;;-1.90;99.90;;;;;;4998181;28;20037;-83
2023/03/01 06:44:41;;;;;;;5.88;3.42;;;-1.90;99.90;;;;;;5002806;28;20045;-82
2023/03/01 06:47:16;;;;;;;4.88;2.83;;;-1.90;99.90;;;;;;5003779;28;20045;-82
2023/03/01 06:49:43;;;;;;;5.47;3.30;;;-1.80;99.90;;;;;;5003791;28;20543;-81
2023/03/01 06:52:29;;;;;;;5.43;3.15;;;-1.80;99.90;;;;;;5004208;28;20038;-82
2023/03/01 06:54:57;;;;;;;6.72;3.58;;;-1.80;99.90;;;;;;5006458;28;20037;-82
2023/03/01 06:58:07;;;;;;;5.32;2.92;;;-1.80;99.90;;;;;;4987822;28;20520;-82
2023/03/01 07:00:42;;;;;;;7.32;3.33;;;-1.70;99.90;;;;;;4948168;28;20041;-83
2023/03/01 07:03:17;;;;;;;6.97;3.72;;;-1.70;99.90;;;;;;5009732;28;20054;-83
2023/03/01 07:05:54;;;;;;;5.10;3.35;;;-1.70;99.90;;;;;;5023552;28;20160;-83
2023/03/01 07:08:29;;;;;;;6.25;3.92;;;-1.70;99.90;;;;;;5005225;28;20041;-81
2023/03/01 07:11:03;;;;;;;6.15;3.88;;;-1.70;99.90;;;;;;5007901;28;20040;-83
2023/03/01 07:13:53;;;;;;;;;;;-1.70;99.90;;;;;;4988924;28;20037;-83
2023/03/01 07:17:00;;;;;;;5.93;3.42;;;-1.70;99.90;;;;;;5013275;28;19912;-84
2023/03/01 07:19:35;;;;;;;6.15;3.50;;;-1.60;99.90;;;;;;5023595;28;20037;-82
2023/03/01 07:22:48;;;;;;;7.18;3.35;;;-1.60;99.90;;;;;;5023373;28;20033;-82
2023/03/01 07:25:58;;;;;;;5.75;3.40;;;-1.60;99.90;;;;;;5003999;28;20536;-82
2023/03/01 07:28:44;;;;;;;6.70;3.13;;;-1.50;99.90;;;;;;5021057;28;20041;-83
2023/03/01 07:31:36;;;;;;;5.47;3.38;;;-1.40;99.90;;;;;;5004476;28;20558;-82
2023/03/01 07:34:18;;;;;;;5.00;2.70;;;-1.30;99.90;;;;;;5018851;28;20053;-82
2023/03/01 07:36:53;;;;;;;4.47;2.75;;;-1.20;99.90;;;;;;4987330;28;20053;-82
2023/03/01 07:39:46;;;;;;;8.48;3.13;;;-1.10;99.90;;;;;;5004070;28;20413;-83
2023/03/01 07:42:19;;;;;;;6.30;2.65;;;-1.00;99.90;;;;;;4990755;28;20087;-83
2023/03/01 07:44:47;;;;;;;4.63;2.83;;;-0.80;99.90;;;;;;5003053;28;20062;-83
2023/03/01 07:47:22;;;;;;;5.15;2.70;;;-0.80;99.90;;;;;;5002884;28;20038;-83
2023/03/01 07:49:58;;;;;;;4.20;2.65;;;-0.60;99.90;;;;;;5004080;28;20151;-82
2023/03/01 07:52:55;;;;;;;5.25;2.65;;;-0.50;99.90;;;;;;5005653;28;20061;-83
2023/03/01 07:55:26;;;;;;;4.68;2.40;;;-0.40;99.90;;;;;;5008772;28;20844;-83
2023/03/01 07:57:58;;;;;;;5.68;2.92;;;-0.30;99.90;;;;;;5003023;28;20046;-83
2023/03/01 08:00:25;;;;;;;5.05;2.75;;;-0.20;99.90;;;;;;5002308;28;20045;-83
2023/03/01 08:03:06;;;;;;;5.55;3.10;;;-0.10;99.90;;;;;;4975570;28;20072;-84
2023/03/01 08:05:35;;;;;;;5.07;2.78;;;0.00;99.90;;;;;;4994164;28;20046;-83
2023/03/01 08:08:04;;;;;;;5.85;3.00;;;0.10;99.90;;;;;;5023300;28;20042;-83
2023/03/01 08:11:05;;;;;;;7.20;3.42;;;0.20;99.90;;;;;;5025989;28;20039;-83
2023/03/01 08:13:37;;;;;;;5.18;2.92;;;0.30;99.90;;;;;;5007564;28;20075;-83
2023/03/01 08:16:15;;;;;;;7.80;3.08;;;0.40;99.90;;;;;;5007601;28;20141;-84
2023/03/01 08:18:43;;;;;;;6.50;3.50;;;0.50;99.90;;;;;;4995153;28;20065;-84
2023/03/01 08:21:28;;;;;;;;;;;;;;;;;;;;;
2023/03/01 08:24:02;;;;;;;7.50;3.67;;;0.70;99.90;;;;;;5020743;28;20053;-82
2023/03/01 08:26:28;;;;;;;6.90;3.53;;;0.90;99.90;;;;;;5006291;28;20042;-82
2023/03/01 08:28:57;;;;;;;6.55;3.75;;;0.90;99.90;;;;;;5007466;28;20046;-82
2023/03/01 08:31:28;;;;;;;7.10;3.58;;;1.00;99.90;;;;;;5001446;28;20037;-82
2023/03/01 08:34:01;;;;;;;5.25;3.03;;;1.10;99.90;;;;;;5006039;28;20030;-82
2023/03/01 08:36:29;;;;;;;;;;;1.20;99.90;;;;;;5003132;28;20400;-82
2023/03/01 08:38:56;;;;;;;5.68;2.92;;;1.30;99.90;;;;;;5001552;28;19917;-83
2023/03/01 08:41:25;;;;;;;7.72;3.88;;;1.30;99.90;;;;;;5002589;28;20037;-82
2023/03/01 08:43:58;;;;;;;10.27;4.78;;;1.40;99.90;;;;;;5005636;28;20489;-84
2023/03/01 08:46:29;;;;;;;6.00;3.55;;;1.60;99.90;;;;;;5018796;28;20037;-83
2023/03/01 08:49:14;;;;;;;8.07;3.40;;;1.60;99.90;;;;;;4998398;28;20054;-82
2023/03/01 08:51:44;;;;;;;6.45;3.35;;;1.80;99.90;;;;;;5003008;28;20478;-82
2023/03/01 08:54:18;;;;;;;6.20;3.15;;;1.80;99.90;;;;;;4998504;28;20037;-82
2023/03/01 08:56:48;;;;;;;8.15;3.13;;;1.90;99.90;;;;;;4999289;28;20030;-82
2023/03/01 08:59:18;;;;;;;5.60;3.20;;;2.00;99.90;;;;;;5001407;28;20061;-82
2023/03/01 09:01:48;;;;;;;6.03;3.75;;;2.10;99.90;;;;;;5002627;28;20050;-82
2023/03/01 09:04:24;;;;;;;5.85;3.22;;;2.10;99.90;;;;;;4997434;28;20046;-82
2023/03/01 09:07:07;;;;;;;6.10;3.25;;;2.30;99.90;;;;;;4997383;28;20052;-85
2023/03/01 09:09:44;;;;;;;5.93;3.25;;;2.30;99.90;;;;;;4999181;28;20057;-83
2023/03/01 09:12:11;;;;;;;5.43;3.25;;;2.40;99.90;;;;;;4999611;28;20047;-82
2023/03/01 09:14:55;;;;;;;6.75;3.67;;;2.50;99.90;;;;;;4999206;28;20042;-82
2023/03/01 09:17:25;;;;;;;6.47;3.40;;;2.60;99.90;;;;;;4998999;28;20482;-82
2023/03/01 09:19:53;;;;;;;6.43;3.88;;;2.70;99.90;;;;;;4996563;28;20038;-82
2023/03/01 09:22:23;;;;;;;8.65;5.18;;;2.80;99.90;;;;;;4996291;28;20042;-81
2023/03/01 09:24:50;;;;;;;7.90;4.63;;;2.90;99.90;;;;;;4995072;28;20041;-81
2023/03/01 09:27:18;;;;;;;6.85;3.67;;;3.00;99.90;;;;;;4995729;28;20069;-81
2023/03/01 09:29:45;;;;;;;5.00;3.40;;;3.10;99.90;;;;;;4996246;28;20052;-83
2023/03/01 09:32:11;;;;;;;7.13;3.75;;;3.10;99.90;;;;;;5000378;28;20066;-83
2023/03/01 09:35:04;;;;;;;7.07;3.67;;;3.40;99.90;;;;;;4994643;28;20073;-84
2023/03/01 09:37:37;;;;;;;6.22;3.40;;;4.80;99.90;;;;;;4996897;28;20041;-83
2023/03/01 09:40:15;;;;;;;5.57;3.03;;;6.80;99.90;;;;;;5001073;28;20037;-83
2023/03/01 09:43:08;;;;;;;6.35;3.88;;;8.30;99.90;;;;;;4993020;28;20427;-83
2023/03/01 09:45:38;;;;;;;7.05;3.83;;;9.90;99.90;;;;;;4995737;28;20046;-82
2023/03/01 09:48:17;;;;;;;6.47;3.72;;;10.80;99.90;;;;;;5002060;28;20168;-82
2023/03/01 09:50:49;;;;;;;6.30;3.45;;;11.50;99.90;;;;;;4999412;28;20049;-82
2023/03/01 09:53:31;;;;;;;5.90;3.13;;;12.10;99.90;;;;;;5003017;28;20033;-83
2023/03/01 09:56:48;;;;;;;7.35;4.50;;;12.60;99.90;;;;;;5003881;28;20512;-83
2023/03/01 09:59:37;;;;;;;7.38;4.68;;;13.10;99.90;;;;;;5000978;28;20069;-83
2023/03/01 10:02:27;;;;;;;7.13;3.97;;;13.60;99.90;;;;;;4996916;28;20065;-84
2023/03/01 10:05:05;;;;;;;5.70;3.60;;;13.80;99.60;;;;;;4998455;28;20053;-83
2023/03/01 10:08:20;;;;;;;5.03;3.15;;;14.00;99.30;;;;;;5001991;28;20034;-84
2023/03/01 10:10:48;;;;;;;5.82;3.45;;;14.60;98.70;;;;;;4970068;28;20489;-83
2023/03/01 10:13:23;;;;;;;5.30;3.10;;;15.00;97.40;;;;;;5003670;28;20044;-84
2023/03/01 10:16:02;;;;;;;5.50;3.50;;;15.20;96.50;;;;;;5006769;28;20033;-83
2023/03/01 10:18:33;;;;;;;5.00;3.25;;;15.50;95.20;;;;;;5021845;28;20486;-84
2023/03/01 10:21:29;;;;;;;5.07;3.45;;;15.70;95.10;;;;;;5005747;28;20045;-83
2023/03/01 10:24:10;;;;;;;4.88;3.35;;;15.90;93.60;;;;;;4992787;28;20068;-83
2023/03/01 10:26:48;;;;;;;6.18;3.38;;;16.00;93.30;;;;;;4998665;28;20037;-82
2023/03/01 10:29:21;;;;;;;5.35;3.42;;;15.90;92.30;;;;;;4997733;28;20124;-82
2023/03/01 10:31:50;;;;;;;4.22;3.00;;;16.10;92.30;;;;;;5016177;28;20045;-83
2023/03/01 10:34:31;;;;;;;4.97;2.92;;;16.20;92.00;;;;;;4997168;28;20063;-80
2023/03/01 10:37:15;;;;;;;5.20;3.13;;;16.40;91.60;;;;;;4986623;28;20120;-83
2023/03/01 10:40:08;;;;;;;4.13;2.95;;;16.50;90.90;;;;;;5003432;28;20044;-81
2023/03/01 10:42:56;;;;;;;4.77;2.80;;;16.30;90.00;;;;;;4998886;28;20041;-82
2023/03/01 10:45:39;;;;;;;4.55;2.92;;;16.30;90.20;;;;;;4998916;28;20304;-82
2023/03/01 10:48:21;;;;;;;5.18;3.08;;;16.70;89.70;;;;;;4997707;28;20042;-82
2023/03/01 10:51:19;;;;;;;5.78;2.90;;;16.90;88.40;;;;;;4998310;28;20659;-82
2023/03/01 10:53:53;;;;;;;3.97;2.63;;;17.10;87.20;;;;;;4998176;28;20029;-82
2023/03/01 10:56:19;;;;;;;4.22;2.70;;;17.20;86.70;;;;;;5000423;28;20042;-81
2023/03/01 10:59:05;;;;;;;5.18;3.10;;;17.20;86.50;;;;;;5000007;28;20108;-82
2023/03/01 11:01:35;;;;;;;4.47;2.97;;;17.10;82.80;;;;;;5001559;28;20544;-82
2023/03/01 11:04:12;;;;;;;4.78;2.92;;;17.00;83.90;;;;;;5013766;28;20045;-83
2023/03/01 11:06:42;;;;;;;4.15;2.85;;;17.40;84.60;;;;;;4998310;28;20065;-83
2023/03/01 11:09:38;;;;;;;3.30;2.50;;;17.60;83.40;;;;;;4997795;28;20038;-82
2023/03/01 11:12:20;;;;;;;4.15;2.45;;;17.80;82.80;;;;;;5013065;28;20046;-81
2023/03/01 11:15:02;;;;;;;5.32;2.60;;;17.70;81.70;;;;;;5002223;28;20497;-82
2023/03/01 11:17:38;;;;;;;4.68;3.10;;;17.70;80.90;;;;;;5004137;28;20041;-82
2023/03/01 11:20:08;;;;;;;5.03;2.70;;;18.00;80.60;;;;;;5014012;28;20188;-83
2023/03/01 11:22:39;;;;;;;4.05;2.65;;;18.10;79.90;;;;;;4995988;28;20037;-81
2023/03/01 11:25:15;;;;;;;3.90;2.53;;;18.20;79.50;;;;;;5002943;28;20096;-82
2023/03/01 11:27:47;;;;;;;4.22;2.45;;;18.40;80.40;;;;;;4985484;28;20150;-81
2023/03/01 11:30:31;;;;;;;3.88;2.50;;;18.60;79.80;;;;;;4995007;28;20067;-82
2023/03/01 11:33:32;;;;;;;3.40;2.22;;;18.80;78.70;;;;;;4998214;28;20099;-82
2023/03/01 11:36:06;;;;;;;3.63;2.38;;;19.00;78.40;;;;;;4998512;28;20048;-81
2023/03/01 11:38:35;;;;;;;4.65;2.80;;;19.10;77.50;;;;;;4996001;28;20038;-81
2023/03/01 11:41:26;;;;;;;4.03;2.67;;;18.90;76.00;;;;;;5000018;28;20029;-83
2023/03/01 11:44:11;;;;;;;5.45;2.80;;;18.80;75.80;;;;;;4999857;28;20065;-82
2023/03/01 11:47:05;;;;;;;3.80;2.35;;;18.80;76.10;;;;;;5000889;28;20030;-82
2023/03/01 11:49:49;;;;;;;3.65;2.42;;;19.00;75.50;;;;;;5000769;28;20420;-82
2023/03/01 11:52:34;;;;;;;4.35;3.00;;;19.10;74.80;;;;;;4999866;28;20137;-83
2023/03/01 11:55:38;;;;;;;5.63;2.85;;;19.20;73.70;;;;;;4998369;28;20049;-81
2023/03/01 11:58:26;;;;;;;3.85;2.13;;;19.20;73.20;;;;;;5014738;28;20385;-82
2023/03/01 12:01:39;;;;;;;5.20;2.67;;;19.40;73.90;;;;;;4997581;28;20048;-83
2023/03/01 12:04:23;;;;;;;3.72;2.67;;;19.60;73.60;;;;;;4993138;28;20104;-82
2023/03/01 12:07:23;;;;;;;4.70;2.85;;;19.80;72.40;;;;;;5000834;28;20038;-82
2023/03/01 12:10:11;;;;;;;4.60;2.50;;;19.80;71.60;;;;;;5015878;28;20033;-82
2023/03/01 12:12:43;;;;;;;4.13;2.50;;;19.70;72.10;;;;;;5000648;28;20038;-82
2023/03/01 12:15:37;;;;;;;4.28;2.40;;;19.70;71.90;;;;;;5003827;28;20128;-82
2023/03/01 12:18:29;;;;;;;4.72;2.95;;;19.90;71.80;;;;;;5002841;28;20048;-82
2023/03/01 12:21:23;;;;;;;4.22;2.83;;;19.80;70.10;;;;;;5018254;28;20064;-82
2023/03/01 12:24:30;;;;;;;3.97;2.40;;;19.70;70.40;;;;;;5001522;28;20045;-82
2023/03/01 12:27:40;;;;;;;4.97;3.05;;;20.00;70.50;;;;;;5002671;28;20132;-83
2023/03/01 12:30:33;;;;;;;4.25;2.83;;;20.00;68.90;;;;;;4983492;28;20041;-82
2023/03/01 12:33:41;;;;;;;4.57;3.10;;;19.80;68.70;;;;;;5018011;28;20879;-81
2023/03/01 12:36:44;;;;;;;3.97;2.58;;;19.60;68.40;;;;;;5004865;28;20133;-83
2023/03/01 12:39:32;;;;;;;4.28;2.80;;;19.90;69.00;;;;;;4999159;28;20049;-84
2023/03/01 12:42:22;;;;;;;3.65;2.40;;;20.20;69.00;;;;;;5004012;28;20048;-82
2023/03/01 12:45:35;;;;;;;4.10;2.80;;;20.50;67.90;;;;;;5021740;28;20513;-83
2023/03/01 12:48:24;;;;;;;4.18;2.88;;;20.50;67.60;;;;;;5015539;28;20049;-82
2023/03/01 12:51:00;;;;;;;4.07;2.97;;;20.40;67.40;;;;;;5000793;28;20128;-84
2023/03/01 12:53:44;;;;;;;5.20;2.30;;;20.50;67.50;;;;;;5020615;28;20155;-84
2023/03/01 12:56:17;;;;;;;4.32;2.70;;;20.70;67.60;;;;;;5021193;28;20103;-84
2023/03/01 12:59:11;;;;;;;3.65;2.60;;;20.70;66.40;;;;;;5017461;28;20045;-84
2023/03/01 13:02:12;;;;;;;3.80;2.33;;;20.40;66.70;;;;;;5016787;28;20041;-83
2023/03/01 13:04:53;;;;;;;4.70;2.50;;;20.40;67.00;;;;;;5021915;28;20042;-82
2023/03/01 13:08:03;;;;;;;3.13;2.03;;;20.70;66.50;;;;;;5004413;28;20033;-82
2023/03/01 13:10:43;;;;;;;4.22;2.42;;;21.00;65.90;;;;;;4948625;28;20499;-83
2023/03/01 13:13:19;;;;;;;3.40;2.30;;;20.90;65.60;;;;;;5028109;28;20124;-82
2023/03/01 13:15:57;;;;;;;3.88;2.20;;;20.90;65.60;;;;;;5017418;28;20046;-82
2023/03/01 13:18:23;;;;;;;2.90;2.30;;;20.60;65.50;;;;;;4999297;28;20029;-82
2023/03/01 13:21:08;;;;;;;3.00;1.90;;;20.40;65.90;;;;;;5004554;28;20064;-81
2023/03/01 13:24:00;;;;;;;4.10;2.40;;;20.30;65.60;;;;;;5034452;28;20025;-82
2023/03/01 13:26:26;;;;;;;4.43;2.40;;;20.00;65.00;;;;;;5016269;28;20046;-82
2023/03/01 13:28:57;;;;;;;4.03;2.10;;;19.90;65.00;;;;;;4999438;28;20037;-82
2023/03/01 13:31:32;;;;;;;3.83;2.28;;;20.00;65.80;;;;;;4998748;28;22314;-84
2023/03/01 13:34:00;;;;;;;4.10;2.45;;;20.10;65.40;;;;;;5016034;28;20065;-83
2023/03/01 13:36:32;;;;;;;3.88;2.38;;;20.10;65.20;;;;;;5000388;28;20153;-84